Time;durP1;ratioP1;P1;durP2;ratioP2;P2;SDS_P1;SDS_P2;PMS_P1;PMS_P2;Temp;Humidity;BMP_temperature;BMP_pressure;BME280_temperature;BME280_humidity;BME280_pressure;Samples;Min_cycle;Max_cycle;Signal;HPM_P1;HPM_P2
2022/10/06 00:01:46;;;;;;;13.05;2.00;;;;;;;12.98;100.00;102269.13;5283029;28;20116;-74
2022/10/06 00:04:16;;;;;;;12.52;1.83;;;;;;;12.94;100.00;102273.97;5259483;28;20448;-74
2022/10/06 00:06:47;;;;;;;11.88;1.90;;;;;;;12.92;100.00;102284.03;5290477;28;20044;-74
2022/10/06 00:09:17;;;;;;;13.80;1.42;;;;;;;12.90;100.00;102286.03;5272056;28;20059;-74
2022/10/06 00:11:48;;;;;;;11.05;1.83;;;;;;;12.86;100.00;102290.03;5267423;28;20058;-74
2022/10/06 00:14:18;;;;;;;8.88;1.80;;;;;;;12.81;100.00;102295.84;5279521;28;20024;-74
2022/10/06 00:16:49;;;;;;;10.80;1.50;;;;;;;12.75;100.00;102301.81;5273095;28;20020;-74
2022/10/06 00:19:19;;;;;;;6.22;1.40;;;;;;;12.74;100.00;102307.34;5272101;28;20027;-74
2022/10/06 00:21:50;;;;;;;13.02;2.20;;;;;;;12.70;100.00;102325.63;5274450;28;20055;-72
2022/10/06 00:24:20;;;;;;;16.13;1.85;;;;;;;12.66;100.00;102327.75;5272398;28;20428;-71
2022/10/06 00:26:51;;;;;;;12.55;2.20;;;;;;;12.62;100.00;102330.88;5273657;28;20753;-71
2022/10/06 00:29:21;;;;;;;11.55;1.60;;;;;;;12.57;100.00;102334.00;5262974;28;20028;-72
2022/10/06 00:31:51;;;;;;;10.60;1.80;;;;;;;12.54;100.00;102341.50;5277318;28;20019;-71
2022/10/06 00:34:22;;;;;;;6.03;1.50;;;;;;;12.50;100.00;102349.03;5280931;28;20032;-71
2022/10/06 00:36:52;;;;;;;10.95;1.52;;;;;;;12.44;100.00;102342.34;5265990;28;20019;-72
2022/10/06 00:39:23;;;;;;;11.95;1.95;;;;;;;12.44;100.00;102352.28;5258878;28;20043;-72
2022/10/06 00:41:53;;;;;;;19.25;1.88;;;;;;;12.40;100.00;102358.97;5248740;28;20390;-74
2022/10/06 00:44:24;;;;;;;11.65;1.63;;;;;;;12.43;100.00;102372.13;5277277;28;20024;-74
2022/10/06 00:46:55;;;;;;;11.38;2.17;;;;;;;12.37;100.00;102373.53;5266647;28;20027;-73
2022/10/06 00:49:37;;;;;;;9.38;1.77;;;;;;;12.33;100.00;102380.19;5280109;28;20381;-74
2022/10/06 00:52:11;;;;;;;9.88;1.50;;;;;;;12.32;100.00;102377.63;5281975;28;20075;-75
2022/10/06 00:54:41;;;;;;;17.80;1.75;;;;;;;12.26;100.00;102383.59;5280528;28;20099;-75
2022/10/06 00:57:12;;;;;;;15.48;1.38;;;;;;;12.20;100.00;102395.75;5275956;28;20129;-74
2022/10/06 00:59:42;;;;;;;14.35;2.10;;;;;;;12.18;100.00;102395.03;5289331;28;20019;-75
2022/10/06 01:02:22;;;;;;;12.30;1.40;;;;;;;12.14;100.00;102386.38;5279986;28;20020;-74
2022/10/06 01:04:59;;;;;;;9.43;1.75;;;;;;;12.12;100.00;102391.06;5266582;28;20153;-75
2022/10/06 01:07:31;;;;;;;19.70;2.20;;;;;;;12.10;100.00;102392.22;5288047;28;20037;-73
2022/10/06 01:10:20;;;;;;;9.18;1.50;;;;;;;12.08;100.00;102397.72;5263514;28;20031;-73
2022/10/06 01:12:54;;;;;;;13.10;1.45;;;;;;;12.02;100.00;102403.66;5280439;28;20031;-73
2022/10/06 01:15:56;;;;;;;10.05;1.63;;;;;;;11.99;100.00;102409.28;5279636;28;20090;-74
2022/10/06 01:18:30;;;;;;;9.48;1.60;;;;;;;11.96;100.00;102411.41;5263639;28;20016;-74
2022/10/06 01:21:24;;;;;;;16.88;2.25;;;;;;;11.90;100.00;102415.50;5286733;28;20027;-74
2022/10/06 01:24:03;;;;;;;13.57;1.67;;;;;;;11.82;100.00;102426.09;5268680;28;20107;-73
2022/10/06 01:26:55;;;;;;;10.63;1.63;;;;;;;11.78;100.00;102430.00;5272148;28;20033;-75
2022/10/06 01:29:26;;;;;;;12.30;1.90;;;;;;;11.75;100.00;102432.97;5272225;28;20103;-74
2022/10/06 01:31:58;;;;;;;17.17;2.22;;;;;;;11.75;100.00;102425.75;5290695;28;20055;-74
2022/10/06 01:34:28;;;;;;;14.65;2.30;;;;;;;11.78;100.00;102435.38;5268521;28;20027;-74
2022/10/06 01:36:58;;;;;;;14.82;1.88;;;;;;;11.73;100.00;102441.16;5267705;28;20032;-74
2022/10/06 01:39:29;;;;;;;12.63;1.63;;;;;;;11.71;100.00;102439.59;5267679;28;20483;-74
2022/10/06 01:41:59;;;;;;;15.07;1.73;;;;;;;11.70;100.00;102444.13;5255329;28;20032;-74
2022/10/06 01:44:30;;;;;;;14.48;2.17;;;;;;;11.64;100.00;102440.13;5267146;28;20043;-74
2022/10/06 01:47:03;;;;;;;13.73;1.88;;;;;;;11.59;100.00;102441.50;5270403;28;20039;-73
2022/10/06 01:49:34;;;;;;;13.73;1.75;;;;;;;11.58;100.00;102450.56;5288376;28;20066;-73
2022/10/06 01:52:05;;;;;;;9.32;1.80;;;;;;;11.59;100.00;102447.72;5284025;28;20047;-72
2022/10/06 01:54:37;;;;;;;12.35;2.35;;;;;;;11.56;100.00;102448.03;5266864;28;20042;-74
2022/10/06 01:57:07;;;;;;;10.30;2.30;;;;;;;11.47;100.00;102447.97;5267324;28;20020;-73
2022/10/06 01:59:38;;;;;;;13.65;2.00;;;;;;;11.44;100.00;102445.53;5280321;28;20024;-73
2022/10/06 02:02:09;;;;;;;14.73;2.03;;;;;;;11.38;100.00;102455.81;5278860;27;20008;-73
2022/10/06 02:04:39;;;;;;;15.13;2.15;;;;;;;11.35;100.00;102452.56;5275997;28;20024;-74
2022/10/06 02:07:10;;;;;;;15.30;3.30;;;;;;;11.29;100.00;102461.13;5287810;28;20031;-73
2022/10/06 02:09:40;;;;;;;21.95;2.80;;;;;;;11.22;100.00;102465.34;5272120;28;20024;-72
2022/10/06 02:12:11;;;;;;;15.50;2.03;;;;;;;11.15;100.00;102471.25;5286460;28;20031;-73
2022/10/06 02:14:42;;;;;;;14.27;2.35;;;;;;;11.12;100.00;102473.34;5283457;28;20032;-73
2022/10/06 02:17:13;;;;;;;17.95;2.33;;;;;;;11.08;100.00;102475.41;5267297;28;20024;-73
2022/10/06 02:19:43;;;;;;;27.00;2.90;;;;;;;11.02;100.00;102473.25;5266612;28;20027;-73
2022/10/06 02:22:14;;;;;;;19.02;2.30;;;;;;;10.95;100.00;102480.16;5278198;28;20061;-73
2022/10/06 02:24:45;;;;;;;15.10;1.70;;;;;;;10.88;100.00;102485.16;5286812;28;20035;-74
2022/10/06 02:27:15;;;;;;;21.13;3.47;;;;;;;10.81;100.00;102483.97;5268054;27;20020;-73
2022/10/06 02:29:48;;;;;;;9.38;2.08;;;;;;;10.74;100.00;102485.44;5266705;28;20024;-74
2022/10/06 02:32:18;;;;;;;12.82;2.17;;;;;;;10.69;100.00;102489.50;5282667;28;20030;-74
2022/10/06 02:34:49;;;;;;;17.73;2.80;;;;;;;10.66;100.00;102500.50;5281932;28;20365;-73
2022/10/06 02:37:19;;;;;;;14.90;2.20;;;;;;;10.61;100.00;102507.09;5266587;28;20028;-75
2022/10/06 02:39:49;;;;;;;15.85;2.13;;;;;;;10.56;100.00;102503.94;5255605;28;20070;-75
2022/10/06 02:42:20;;;;;;;31.70;2.88;;;;;;;10.51;100.00;102503.47;5263030;28;20535;-74
2022/10/06 02:44:51;;;;;;;18.95;2.50;;;;;;;10.48;100.00;102503.72;5277461;28;20051;-75
2022/10/06 02:47:21;;;;;;;13.45;3.08;;;;;;;10.44;100.00;102510.31;5273383;28;20019;-74
2022/10/06 02:49:52;;;;;;;16.83;3.47;;;;;;;10.40;100.00;102516.91;5274552;28;20495;-74
2022/10/06 02:52:22;;;;;;;14.65;2.10;;;;;;;10.35;100.00;102519.13;5286581;28;20076;-71
2022/10/06 02:54:53;;;;;;;12.60;2.08;;;;;;;10.30;100.00;102518.63;5286383;28;20385;-72
2022/10/06 02:57:23;;;;;;;18.33;2.60;;;;;;;10.28;100.00;102518.75;5278856;28;20100;-75
2022/10/06 02:59:54;;;;;;;23.17;2.35;;;;;;;10.26;100.00;102526.06;5279641;28;20399;-72
2022/10/06 03:02:24;;;;;;;16.02;2.13;;;;;;;10.23;100.00;102528.94;5262270;28;20024;-71
2022/10/06 03:04:55;;;;;;;13.15;2.00;;;;;;;10.18;100.00;102525.78;5260355;28;20407;-75
2022/10/06 03:07:25;;;;;;;15.27;2.40;;;;;;;10.16;100.00;102534.94;5275606;28;20476;-74
2022/10/06 03:09:56;;;;;;;21.38;2.30;;;;;;;10.13;100.00;102544.06;5268875;28;20020;-73
2022/10/06 03:12:26;;;;;;;28.05;2.47;;;;;;;10.11;100.00;102544.22;5265601;28;20024;-74
2022/10/06 03:14:57;;;;;;;18.77;2.45;;;;;;;10.07;100.00;102550.78;5283801;28;20031;-74
2022/10/06 03:17:28;;;;;;;16.48;2.05;;;;;;;10.02;100.00;102549.44;5286974;27;20079;-74
2022/10/06 03:19:58;;;;;;;21.95;2.65;;;;;;;9.98;100.00;102556.00;5266940;28;20107;-73
2022/10/06 03:22:28;;;;;;;18.83;2.47;;;;;;;9.97;100.00;102560.53;5265902;28;20103;-73
2022/10/06 03:24:59;;;;;;;14.38;2.13;;;;;;;9.95;100.00;102562.50;5278113;28;20073;-74
2022/10/06 03:27:29;;;;;;;23.55;2.85;;;;;;;9.94;100.00;102563.47;5263233;28;20089;-74
2022/10/06 03:30:00;;;;;;;23.08;3.10;;;;;;;9.94;100.00;102562.59;5273574;28;20469;-74
2022/10/06 03:32:30;;;;;;;21.20;2.33;;;;;;;9.95;100.00;102567.84;5284621;28;20076;-71
2022/10/06 03:35:00;;;;;;;20.15;2.72;;;;;;;9.92;100.00;102570.75;5266952;28;20044;-72
2022/10/06 03:37:31;;;;;;;18.13;3.13;;;;;;;9.90;100.00;102575.41;5282677;28;20020;-72
2022/10/06 03:40:01;;;;;;;23.50;3.22;;;;;;;9.89;100.00;102576.38;5262048;28;20040;-72
2022/10/06 03:42:32;;;;;;;25.10;3.10;;;;;;;9.86;100.00;102577.47;5254751;28;20016;-72
2022/10/06 03:45:02;;;;;;;16.35;3.42;;;;;;;9.83;100.00;102583.03;5264836;28;20107;-72
2022/10/06 03:47:33;;;;;;;25.02;2.95;;;;;;;9.87;100.00;102583.66;5272278;28;20030;-72
2022/10/06 03:50:04;;;;;;;20.10;3.80;;;;;;;9.88;100.00;102584.53;5284890;28;20111;-71
2022/10/06 03:52:34;;;;;;;21.52;2.03;;;;;;;9.85;100.00;102599.03;5265591;28;20434;-71
2022/10/06 03:55:05;;;;;;;16.27;2.53;;;;;;;9.82;100.00;102602.78;5278250;28;20106;-72
2022/10/06 03:57:36;;;;;;;12.68;2.15;;;;;;;9.77;100.00;102612.16;5275515;28;20503;-71
2022/10/06 04:00:06;;;;;;;24.88;3.03;;;;;;;9.72;100.00;102609.84;5272968;28;20024;-71
2022/10/06 04:02:37;;;;;;;19.77;2.53;;;;;;;9.68;100.00;102619.06;5269712;27;20083;-71
2022/10/06 04:05:08;;;;;;;28.02;3.40;;;;;;;9.65;100.00;102616.66;5261788;28;20047;-71
2022/10/06 04:07:38;;;;;;;22.95;3.13;;;;;;;9.65;100.00;102621.16;5277574;28;20051;-71
2022/10/06 04:10:09;;;;;;;20.70;2.75;;;;;;;9.64;100.00;102630.13;5269697;28;20473;-71
2022/10/06 04:12:39;;;;;;;18.52;2.38;;;;;;;9.62;100.00;102626.72;5272072;28;20063;-71
2022/10/06 04:15:10;;;;;;;27.95;2.75;;;;;;;9.63;100.00;102633.78;5272064;28;20072;-72
2022/10/06 04:17:40;;;;;;;19.92;2.38;;;;;;;9.62;100.00;102642.81;5272155;28;20046;-72
2022/10/06 04:20:10;;;;;;;30.27;3.47;;;;;;;9.59;100.00;102639.41;5277089;28;20024;-72
2022/10/06 04:22:41;;;;;;;17.85;3.00;;;;;;;9.53;100.00;102647.03;5268555;28;20427;-73
2022/10/06 04:25:11;;;;;;;17.05;2.50;;;;;;;9.50;100.00;102649.97;5268339;28;20028;-73
2022/10/06 04:27:42;;;;;;;22.65;2.63;;;;;;;9.45;100.00;102646.78;5262780;28;20020;-73
2022/10/06 04:30:13;;;;;;;24.75;2.83;;;;;;;9.41;100.00;102662.22;5280809;28;20023;-73
2022/10/06 04:32:44;;;;;;;20.80;3.22;;;;;;;9.38;100.00;102661.56;5276738;28;20110;-73
2022/10/06 04:35:15;;;;;;;21.92;3.80;;;;;;;9.37;100.00;102655.38;5275036;28;20024;-73
2022/10/06 04:37:45;;;;;;;20.90;2.50;;;;;;;9.31;100.00;102656.69;5289483;28;20062;-74
2022/10/06 04:40:16;;;;;;;18.02;2.90;;;;;;;9.29;100.00;102671.19;5261830;27;20384;-74
2022/10/06 04:42:48;;;;;;;26.40;2.95;;;;;;;9.24;100.00;102668.84;5269141;28;20104;-74
2022/10/06 04:45:18;;;;;;;22.17;2.55;;;;;;;9.22;100.00;102680.59;5282032;28;20020;-74
2022/10/06 04:47:49;;;;;;;22.60;2.60;;;;;;;9.18;100.00;102681.78;5278595;28;20026;-74
2022/10/06 04:50:19;;;;;;;18.40;2.92;;;;;;;9.14;100.00;102685.69;5271978;28;20035;-75
2022/10/06 04:52:51;;;;;;;24.92;5.32;;;;;;;9.16;100.00;102691.78;5279785;28;20106;-75
2022/10/06 04:55:22;;;;;;;26.05;2.85;;;;;;;9.18;100.00;102687.16;5271130;27;20454;-74
2022/10/06 04:57:54;;;;;;;30.55;3.00;;;;;;;9.16;100.00;102697.13;5269456;28;20034;-73
2022/10/06 05:00:25;;;;;;;20.70;2.10;;;;;;;9.15;100.00;102698.97;5281051;28;20024;-74
2022/10/06 05:02:56;;;;;;;24.92;2.40;;;;;;;9.13;100.00;102708.06;5265191;28;20037;-74
2022/10/06 05:05:26;;;;;;;25.40;4.15;;;;;;;9.08;100.00;102703.88;5274080;28;20430;-74
2022/10/06 05:07:56;;;;;;;20.83;2.83;;;;;;;9.06;100.00;102710.34;5273058;28;20050;-75
2022/10/06 05:10:27;;;;;;;17.08;2.70;;;;;;;9.05;100.00;102719.34;5275682;28;20023;-73
2022/10/06 05:12:58;;;;;;;16.40;2.50;;;;;;;9.01;100.00;102723.19;5273435;28;20098;-74
2022/10/06 05:15:28;;;;;;;18.63;2.65;;;;;;;8.99;100.00;102726.00;5267247;28;20016;-74
2022/10/06 05:17:58;;;;;;;20.95;2.90;;;;;;;8.96;100.00;102720.00;5284690;28;20020;-73
2022/10/06 05:20:29;;;;;;;18.98;2.42;;;;;;;8.93;100.00;102728.22;5289315;27;20451;-75
2022/10/06 05:22:59;;;;;;;21.23;2.60;;;;;;;8.87;100.00;102732.22;5275863;27;20111;-74
2022/10/06 05:25:30;;;;;;;15.32;2.83;;;;;;;8.86;100.00;102735.00;5275908;28;20064;-74
2022/10/06 05:28:00;;;;;;;20.15;3.47;;;;;;;8.84;100.00;102734.28;5268437;28;20362;-74
2022/10/06 05:30:31;;;;;;;23.73;2.63;;;;;;;8.81;100.00;102743.34;5281592;28;20065;-74
2022/10/06 05:33:01;;;;;;;22.17;2.58;;;;;;;8.77;100.00;102739.19;5267265;28;20027;-74
2022/10/06 05:35:32;;;;;;;28.30;4.20;;;;;;;8.74;100.00;102750.13;5272558;28;20020;-75
2022/10/06 05:38:02;;;;;;;22.63;3.65;;;;;;;8.69;100.00;102745.09;5290240;28;20030;-74
2022/10/06 05:40:32;;;;;;;21.15;2.05;;;;;;;8.66;100.00;102752.47;5269648;28;20052;-72
2022/10/06 05:43:03;;;;;;;16.75;2.75;;;;;;;8.59;100.00;102752.03;5268120;28;20083;-73
2022/10/06 05:45:33;;;;;;;21.35;2.70;;;;;;;8.59;100.00;102753.88;5271122;28;20031;-73
2022/10/06 05:48:04;;;;;;;17.65;2.70;;;;;;;8.54;100.00;102749.69;5269339;28;20063;-73
2022/10/06 05:50:34;;;;;;;30.50;3.22;;;;;;;8.52;100.00;102754.28;5281062;28;20020;-73
2022/10/06 05:53:05;;;;;;;29.60;2.40;;;;;;;8.50;100.00;102764.22;5280341;28;20035;-73
2022/10/06 05:55:35;;;;;;;20.60;2.30;;;;;;;8.45;100.00;102761.03;5281342;28;20028;-73
2022/10/06 05:58:06;;;;;;;19.33;2.60;;;;;;;8.42;100.00;102773.75;5281242;28;20132;-72
2022/10/06 06:00:36;;;;;;;17.35;2.80;;;;;;;8.39;100.00;102772.16;5267069;28;20020;-73
2022/10/06 06:03:08;;;;;;;21.38;3.80;;;;;;;8.35;100.00;102775.97;5261406;28;20478;-72
2022/10/06 06:05:40;;;;;;;24.65;3.90;;;;;;;8.31;100.00;102777.13;5287472;28;20094;-73
2022/10/06 06:08:11;;;;;;;24.27;2.55;;;;;;;8.27;100.00;102780.94;5283220;28;20594;-73
2022/10/06 06:10:41;;;;;;;19.77;2.60;;;;;;;8.24;100.00;102791.88;5278307;28;20111;-73
2022/10/06 06:13:18;;;;;;;15.50;2.40;;;;;;;8.22;100.00;102796.47;5288116;28;20041;-73
2022/10/06 06:16:00;;;;;;;13.13;2.08;;;;;;;8.21;100.00;102798.28;5273519;28;20094;-73
2022/10/06 06:18:32;;;;;;;14.52;2.30;;;;;;;8.21;100.00;102803.63;5263546;28;20031;-73
2022/10/06 06:21:05;;;;;;;18.92;2.50;;;;;;;8.22;100.00;102807.16;5274379;28;20035;-73
2022/10/06 06:23:45;;;;;;;19.08;2.67;;;;;;;8.20;100.00;102815.28;5288225;28;20469;-73
2022/10/06 06:26:22;;;;;;;21.58;4.60;;;;;;;8.22;100.00;102815.16;5273231;28;20062;-73
2022/10/06 06:28:55;;;;;;;26.35;3.00;;;;;;;8.26;100.00;102820.22;5260900;28;20024;-73
2022/10/06 06:31:28;;;;;;;18.60;2.60;;;;;;;8.32;100.00;102827.81;5274891;28;20019;-73
2022/10/06 06:34:01;;;;;;;22.50;3.15;;;;;;;8.42;100.00;102827.22;5285632;28;20026;-73
2022/10/06 06:36:39;;;;;;;24.42;2.80;;;;;;;8.56;100.00;102828.00;5264299;28;20035;-73
2022/10/06 06:39:12;;;;;;;24.95;2.42;;;;;;;8.75;100.00;102822.25;5261549;28;20020;-73
2022/10/06 06:41:44;;;;;;;27.30;2.88;;;;;;;8.89;100.00;102823.13;5248938;28;20032;-73
2022/10/06 06:44:16;;;;;;;20.42;3.85;;;;;;;9.04;100.00;102828.25;5275663;28;20024;-73
2022/10/06 06:46:48;;;;;;;22.70;2.83;;;;;;;9.28;100.00;102828.31;5246458;28;20012;-73
2022/10/06 06:49:21;;;;;;;27.80;3.83;;;;;;;9.64;100.00;102841.84;5269062;28;20555;-73
2022/10/06 06:51:53;;;;;;;16.48;2.80;;;;;;;10.17;100.00;102847.78;5285100;28;20016;-74
2022/10/06 06:54:24;;;;;;;10.70;2.42;;;;;;;10.72;100.00;102849.81;5273770;28;20757;-73
2022/10/06 06:56:55;;;;;;;17.00;2.72;;;;;;;11.24;100.00;102844.88;5253360;28;20080;-73
2022/10/06 06:59:26;;;;;;;18.63;2.28;;;;;;;11.80;100.00;102848.38;5272525;27;20497;-74
2022/10/06 07:01:56;;;;;;;19.00;3.55;;;;;;;12.33;100.00;102851.16;5279676;28;20028;-74
2022/10/06 07:04:27;;;;;;;19.50;3.03;;;;;;;12.95;100.00;102853.03;5264541;28;20088;-73
2022/10/06 07:06:58;;;;;;;19.45;2.55;;;;;;;13.79;100.00;102855.50;5263083;28;20493;-73
2022/10/06 07:09:29;;;;;;;16.67;3.28;;;;;;;14.22;100.00;102863.25;5257452;28;20030;-71
2022/10/06 07:11:59;;;;;;;18.60;3.10;;;;;;;14.43;100.00;102862.25;5275901;28;20374;-71
2022/10/06 07:14:30;;;;;;;22.73;4.63;;;;;;;14.56;100.00;102867.38;5263100;28;20027;-71
2022/10/06 07:25:21;;;;;;;19.63;2.70;;;;;;;15.32;100.00;102878.19;5265562;28;20054;-71
2022/10/06 07:27:52;;;;;;;20.30;3.28;;;;;;;15.59;100.00;102888.16;5266313;28;20024;-71
2022/10/06 07:30:25;;;;;;;12.63;3.15;;;;;;;15.70;100.00;102890.69;5278990;28;20393;-71
2022/10/06 07:32:56;;;;;;;16.60;2.72;;;;;;;16.21;100.00;102903.63;5272897;28;20040;-71
2022/10/06 07:35:26;;;;;;;13.43;2.72;;;;;;;16.41;100.00;102904.31;5276882;28;20018;-71
2022/10/06 07:38:01;;;;;;;16.70;3.50;;;;;;;16.04;100.00;102910.72;5269292;28;20077;-71
2022/10/06 07:40:32;;;;;;;17.70;3.33;;;;;;;16.04;100.00;102918.00;5270453;28;20027;-71
2022/10/06 07:43:02;;;;;;;13.20;3.15;;;;;;;16.10;100.00;102925.50;5272483;28;20030;-71
2022/10/06 07:45:37;;;;;;;14.63;2.95;;;;;;;16.60;100.00;102919.56;5264005;28;20107;-71
2022/10/06 07:48:16;;;;;;;;;;;;;;;16.21;100.00;102925.28;5270244;28;20028;-71
2022/10/06 07:50:49;;;;;;;15.20;3.25;;;;;;;16.28;100.00;102931.81;5272026;28;19919;-71
2022/10/06 07:53:20;;;;;;;16.92;3.97;;;;;;;16.51;100.00;102944.88;5269384;28;20032;-71
2022/10/06 07:55:50;;;;;;;18.38;3.25;;;;;;;16.63;100.00;102942.81;5270005;28;20232;-71
2022/10/06 07:58:22;;;;;;;14.13;2.95;;;;;;;16.45;100.00;102942.78;5273780;28;20097;-71
2022/10/06 08:00:53;;;;;;;19.75;3.55;;;;;;;16.43;100.00;102942.13;5282588;28;20018;-71
2022/10/06 08:03:24;;;;;;;19.67;3.25;;;;;;;16.74;100.00;102943.44;5271954;28;20012;-71
2022/10/06 08:05:59;;;;;;;16.05;3.03;;;;;;;16.91;100.00;102946.28;5281325;28;20023;-71
2022/10/06 08:08:35;;;;;;;18.75;2.58;;;;;;;17.03;100.00;102947.75;5278236;28;20046;-71
2022/10/06 08:11:07;;;;;;;17.08;3.17;;;;;;;17.13;100.00;102953.94;5279523;28;20028;-71
2022/10/06 08:13:41;;;;;;;15.63;2.92;;;;;;;17.11;100.00;102961.34;5274219;28;20713;-71
2022/10/06 08:16:20;;;;;;;13.35;3.42;;;;;;;17.11;100.00;102965.94;5270321;28;20050;-71
2022/10/06 08:18:53;;;;;;;14.20;2.60;;;;;;;17.60;100.00;102961.69;5279758;28;20062;-71
2022/10/06 08:21:27;;;;;;;24.02;3.15;;;;;;;17.47;100.00;102966.69;5272060;28;20103;-71
2022/10/06 08:23:58;;;;;;;18.10;3.08;;;;;;;17.52;100.00;102973.34;5274494;28;20022;-71
2022/10/06 08:26:30;;;;;;;16.33;3.67;;;;;;;17.52;100.00;102978.78;5276971;27;20464;-71
2022/10/06 08:29:02;;;;;;;16.40;2.55;;;;;;;17.86;100.00;102976.09;5278390;28;20024;-71
2022/10/06 08:31:32;;;;;;;17.85;2.75;;;;;;;18.07;100.00;102972.97;5276669;28;20047;-71
2022/10/06 08:34:03;;;;;;;19.88;2.67;;;;;;;18.09;100.00;102973.66;5277807;28;20086;-71
2022/10/06 08:36:33;;;;;;;14.27;2.88;;;;;;;18.36;100.00;102974.38;5283543;27;20023;-71
2022/10/06 08:39:06;;;;;;;12.55;2.70;;;;;;;18.65;100.00;102971.22;5280225;27;20031;-71
2022/10/06 08:41:47;;;;;;;11.30;2.22;;;;;;;18.40;100.00;102986.63;5277908;27;20052;-71
2022/10/06 08:44:29;;;;;;;9.88;1.92;;;;;;;18.36;100.00;102991.53;5273181;27;20065;-71
2022/10/06 08:47:03;;;;;;;15.77;2.15;;;;;;;18.56;100.00;102991.25;5279891;28;20057;-71
2022/10/06 08:49:37;;;;;;;16.02;2.20;;;;;;;18.81;100.00;102995.72;5281025;27;20107;-71
2022/10/06 08:52:29;;;;;;;11.33;2.40;;;;;;;18.54;100.00;102990.59;5273670;27;20385;-70
2022/10/06 08:55:22;;;;;;;15.32;2.50;;;;;;;18.52;100.00;102998.03;5275386;28;20792;-71
2022/10/06 08:58:17;;;;;;;12.13;2.17;;;;;;;18.42;100.00;102998.19;5283996;27;20261;-71
2022/10/06 09:00:48;;;;;;;10.13;2.10;;;;;;;18.56;100.00;102997.53;5279568;28;20017;-71
2022/10/06 09:03:22;;;;;;;16.70;3.35;;;;;;;18.57;100.00;102996.50;5271477;27;20469;-71
2022/10/06 09:06:02;;;;;;;15.73;2.58;;;;;;;18.74;100.00;103011.03;5274083;28;20031;-71
2022/10/06 09:08:32;;;;;;;14.98;2.83;;;;;;;18.79;100.00;103010.53;5273692;27;20024;-71
2022/10/06 09:11:09;;;;;;;13.45;2.65;;;;;;;18.73;100.00;103012.06;5273962;28;20039;-71
2022/10/06 09:13:46;;;;;;;14.63;2.22;;;;;;;18.37;100.00;103014.13;5264404;28;20020;-71
2022/10/06 09:16:26;;;;;;;14.10;2.13;;;;;;;18.57;100.00;103029.13;5274607;28;20112;-71
2022/10/06 09:19:14;;;;;;;12.40;2.05;;;;;;;18.18;100.00;103023.44;5274200;28;20343;-71
2022/10/06 09:21:51;;;;;;;8.82;2.17;;;;;;;18.54;100.00;103032.19;5283038;27;20027;-71
2022/10/06 09:24:29;;;;;;;14.30;2.00;;;;;;;18.53;100.00;103032.38;5269514;28;20024;-71
2022/10/06 09:27:15;;;;;;;14.95;2.17;;;;;;;18.66;100.00;103031.88;5274802;28;20012;-71
2022/10/06 09:29:47;;;;;;;14.77;2.42;;;;;;;18.76;100.00;103030.75;5275302;28;20483;-71
2022/10/06 09:32:19;;;;;;;9.30;2.03;;;;;;;18.75;100.00;103033.63;5277473;28;20403;-71
2022/10/06 09:34:51;;;;;;;13.07;2.03;;;;;;;19.17;100.00;103033.47;5279249;28;20069;-71
2022/10/06 09:37:22;;;;;;;13.90;2.22;;;;;;;19.18;100.00;103037.94;5275685;28;20028;-71
2022/10/06 09:39:53;;;;;;;8.90;2.00;;;;;;;19.17;100.00;103044.38;5275503;28;20026;-71
2022/10/06 09:42:34;;;;;;;12.70;1.77;;;;;;;19.44;95.17;103045.06;5272923;28;20016;-71
2022/10/06 09:45:23;;;;;;;9.63;2.22;;;;;;;19.02;96.98;103041.47;5271685;27;20497;-71
2022/10/06 09:47:54;;;;;;;14.00;2.40;;;;;;;19.03;100.00;103050.50;5277446;28;20023;-71
2022/10/06 09:50:27;;;;;;;14.77;2.03;;;;;;;19.22;99.42;103044.72;5272730;28;20016;-71
2022/10/06 09:52:59;;;;;;;10.95;2.30;;;;;;;19.14;100.00;103047.44;5274782;28;20546;-71
2022/10/06 09:55:35;;;;;;;9.90;2.03;;;;;;;18.98;93.25;103045.56;5272253;28;20020;-71
2022/10/06 09:58:36;;;;;;;15.70;1.90;;;;;;;18.95;95.30;103040.47;5276736;28;20060;-71
2022/10/06 10:01:10;;;;;;;13.05;2.25;;;;;;;18.70;99.75;103042.28;5271751;28;20032;-71
2022/10/06 10:03:51;;;;;;;10.32;1.88;;;;;;;18.32;100.00;103047.25;5269032;28;20016;-71
2022/10/06 10:06:30;;;;;;;11.00;1.95;;;;;;;18.24;100.00;103049.09;5273320;28;20065;-71
2022/10/06 10:09:25;;;;;;;8.82;1.88;;;;;;;18.54;100.00;103047.66;5272030;28;20028;-71
2022/10/06 10:12:28;;;;;;;10.75;1.90;;;;;;;18.23;100.00;103052.81;5277453;28;20027;-71
2022/10/06 10:15:24;;;;;;;11.38;2.08;;;;;;;17.88;100.00;103057.41;5273259;28;20489;-71
2022/10/06 10:17:56;;;;;;;9.23;1.77;;;;;;;17.64;100.00;103060.78;5273725;28;20032;-71
2022/10/06 10:20:37;;;;;;;14.48;2.47;;;;;;;17.32;100.00;103056.81;5275709;28;20435;-71
2022/10/06 10:23:20;;;;;;;9.27;1.88;;;;;;;17.39;100.00;103048.91;5277154;28;20027;-71
2022/10/06 10:26:16;;;;;;;7.28;1.50;;;;;;;17.71;100.00;103052.84;5269276;28;20523;-71
2022/10/06 10:29:05;;;;;;;8.27;1.63;;;;;;;17.98;100.00;103044.56;5272414;28;20110;-71
2022/10/06 10:31:54;;;;;;;13.75;2.17;;;;;;;18.23;100.00;103052.81;5279417;28;20035;-71
2022/10/06 10:34:55;;;;;;;8.82;1.60;;;;;;;18.25;99.42;103054.34;5270992;28;20027;-71
2022/10/06 10:37:59;;;;;;;9.90;1.67;;;;;;;18.05;93.81;103055.63;5269356;28;20020;-71
2022/10/06 10:40:41;;;;;;;7.95;1.25;;;;;;;17.88;92.93;103059.28;5255435;28;20319;-72
2022/10/06 10:43:29;;;;;;;11.43;1.52;;;;;;;17.67;92.44;103056.88;5277092;28;20023;-72
2022/10/06 10:46:15;;;;;;;5.72;1.20;;;;;;;17.51;97.93;103050.31;5284567;28;20024;-71
2022/10/06 10:48:57;;;;;;;4.78;1.10;;;;;;;17.57;100.00;103048.84;5285638;28;20413;-71
2022/10/06 10:51:31;;;;;;;9.73;1.70;;;;;;;17.75;100.00;103052.38;5286477;28;20042;-71
2022/10/06 10:54:09;;;;;;;14.65;1.92;;;;;;;18.04;100.00;103048.47;5284596;28;20028;-72
2022/10/06 10:56:42;;;;;;;11.88;1.45;;;;;;;18.23;98.50;103053.69;5286873;28;20469;-71
2022/10/06 10:59:22;;;;;;;7.18;1.42;;;;;;;18.15;95.05;103045.47;5276165;28;20100;-72
2022/10/06 11:01:59;;;;;;;9.50;1.60;;;;;;;18.29;97.14;103044.00;5265013;28;20426;-71
2022/10/06 11:04:30;;;;;;;9.52;1.55;;;;;;;18.18;95.34;103057.91;5268786;28;20019;-71
2022/10/06 11:07:12;;;;;;;10.10;1.40;;;;;;;18.04;98.37;103052.06;5266038;28;20425;-71
2022/10/06 11:10:09;;;;;;;13.25;1.67;;;;;;;18.09;97.96;103057.84;5265481;28;20024;-72
2022/10/06 11:13:17;;;;;;;9.20;1.90;;;;;;;17.98;99.99;103057.28;5286246;28;20106;-71
2022/10/06 11:15:57;;;;;;;11.38;1.65;;;;;;;18.03;99.40;103050.34;5254572;28;20027;-71
2022/10/06 11:18:52;;;;;;;10.57;1.52;;;;;;;17.95;99.38;103053.00;5264906;28;20020;-71
2022/10/06 11:21:30;;;;;;;9.48;1.95;;;;;;;18.00;99.87;103052.53;5260753;28;20493;-71
2022/10/06 11:24:12;;;;;;;10.80;1.35;;;;;;;18.03;100.00;103060.38;5270031;28;20221;-71
2022/10/06 11:26:57;;;;;;;8.13;1.83;;;;;;;18.14;98.07;103059.22;5256519;28;20114;-71
2022/10/06 11:29:30;;;;;;;;;;;;;;;18.22;96.14;103065.53;5262099;28;20452;-71
2022/10/06 11:32:31;;;;;;;9.55;1.65;;;;;;;18.26;86.51;103061.47;5276327;28;20001;-71
2022/10/06 11:35:14;;;;;;;11.55;1.92;;;;;;;18.10;83.11;103053.25;5277507;28;20405;-71
2022/10/06 11:37:59;;;;;;;7.38;1.05;;;;;;;18.19;84.01;103046.84;5271682;28;20047;-71
2022/10/06 11:40:52;;;;;;;6.05;0.95;;;;;;;18.12;80.16;103040.34;5255888;28;20064;-71
2022/10/06 11:43:34;;;;;;;5.85;1.05;;;;;;;18.14;84.88;103048.38;5265585;28;20565;-71
2022/10/06 11:46:32;;;;;;;4.38;1.48;;;;;;;18.40;80.24;103043.69;5260358;28;20081;-72
2022/10/06 11:49:27;;;;;;;6.70;1.42;;;;;;;18.42;79.50;103044.38;5248147;28;20382;-72
2022/10/06 11:52:06;;;;;;;9.35;1.70;;;;;;;18.31;77.67;103045.53;5264030;28;20027;-71
2022/10/06 11:54:43;;;;;;;4.93;1.48;;;;;;;18.46;79.05;103036.75;5264735;28;20040;-72
2022/10/06 11:57:25;;;;;;;4.47;1.02;;;;;;;18.51;75.90;103037.09;5270652;28;20028;-71